Time;durP1;ratioP1;P1;durP2;ratioP2;P2;SDS_P1;SDS_P2;PMS_P1;PMS_P2;Temp;Humidity;BMP_temperature;BMP_pressure;BME280_temperature;BME280_humidity;BME280_pressure;Samples;Min_cycle;Max_cycle;Signal;HPM_P1;HPM_P2
2022/01/26 00:07:58;;;;;;;58.20;19.08;;;;;;;0.78;100.00;101365.28;12223973;19;20011;-86
2022/01/26 00:12:00;;;;;;;60.33;17.80;;;;;;;0.80;100.00;101367.81;12234837;19;20007;-86
2022/01/26 00:16:35;;;;;;;54.97;20.40;;;;;;;0.87;100.00;101363.53;12234719;19;20027;-84
2022/01/26 00:21:03;;;;;;;57.03;16.45;;;;;;;0.82;100.00;101365.81;12227649;19;20002;-85
2022/01/26 00:26:02;;;;;;;61.42;18.80;;;;;;;0.82;100.00;101358.53;12231550;19;20011;-85
2022/01/26 00:29:39;;;;;;;53.70;17.95;;;;;;;0.74;100.00;101347.56;12232808;19;20014;-85
2022/01/26 00:42:21;;;;;;;64.38;17.90;;;;;;;0.75;100.00;101354.72;12231228;19;20039;-86
2022/01/26 00:46:24;;;;;;;55.30;17.10;;;;;;;0.75;100.00;101356.56;12225333;19;21355;-85
2022/01/26 00:50:26;;;;;;;55.90;17.60;;;;;;;0.75;100.00;101354.72;12230182;19;20369;-84
2022/01/26 00:54:27;;;;;;;53.78;16.40;;;;;;;0.73;100.00;101350.44;12231739;19;20035;-84
2022/01/26 00:58:30;;;;;;;48.60;16.90;;;;;;;0.74;100.00;101355.69;12223592;19;20520;-85
2022/01/26 01:02:33;;;;;;;49.03;16.70;;;;;;;0.77;100.00;101366.25;12233123;19;20031;-84
2022/01/26 01:06:44;;;;;;;;;;;;;;;0.73;100.00;101358.56;12232654;19;20006;-85
2022/01/26 01:10:48;;;;;;;39.65;12.55;;;;;;;0.65;100.00;101354.75;12237583;19;19911;-84
2022/01/26 01:14:49;;;;;;;44.88;14.40;;;;;;;0.58;100.00;101358.19;12230234;19;20010;-85
2022/01/26 01:19:28;;;;;;;43.92;12.57;;;;;;;0.64;100.00;101369.31;12225927;19;20014;-85
2022/01/26 01:32:02;;;;;;;54.05;17.30;;;;;;;0.65;100.00;101378.28;12231969;19;20010;-85
2022/01/26 01:36:05;;;;;;;62.10;18.15;;;;;;;0.69;100.00;101382.44;12222451;19;20373;-85
2022/01/26 01:40:08;;;;;;;57.25;17.85;;;;;;;0.72;100.00;101381.28;12224831;19;20007;-85
2022/01/26 01:44:10;;;;;;;56.38;18.60;;;;;;;0.73;100.00;101378.41;12225008;19;20347;-84
2022/01/26 01:48:16;;;;;;;57.70;18.88;;;;;;;0.71;100.00;101379.56;12232930;19;20077;-84
2022/01/26 01:52:18;;;;;;;67.00;18.60;;;;;;;0.74;100.00;101377.41;12223386;19;20010;-84
2022/01/26 01:56:24;;;;;;;71.13;18.67;;;;;;;0.77;100.00;101384.41;12229234;19;20367;-84
2022/01/26 02:00:27;;;;;;;79.13;20.25;;;;;;;0.64;100.00;101382.00;12230982;19;20034;-84
2022/01/26 02:04:29;;;;;;;63.03;17.67;;;;;;;0.67;100.00;101373.59;12225729;19;20460;-84
2022/01/26 02:08:30;;;;;;;60.15;18.75;;;;;;;0.71;100.00;101377.69;12232527;19;20007;-84
2022/01/26 02:12:35;;;;;;;59.53;17.23;;;;;;;0.76;100.00;101369.13;12227185;19;20034;-84
2022/01/26 03:08:00;;;;;;;87.68;22.63;;;;;;;0.47;100.00;101334.78;12230237;19;20030;-85
2022/01/26 03:12:04;;;;;;;80.72;22.60;;;;;;;0.47;100.00;101332.09;12226522;19;20010;-85
2022/01/26 03:16:13;;;;;;;78.60;19.55;;;;;;;0.51;100.00;101329.97;12218109;19;20007;-84
2022/01/26 03:20:16;;;;;;;81.65;21.33;;;;;;;0.56;100.00;101331.19;12225362;19;20464;-85
2022/01/26 03:28:43;;;;;;;82.75;20.48;;;;;;;0.55;100.00;101334.06;12223399;19;20007;-83
2022/01/26 03:33:10;;;;;;;116.05;22.75;;;;;;;0.49;100.00;101340.09;12222428;19;20019;-83
2022/01/26 03:37:13;;;;;;;88.80;21.98;;;;;;;0.49;100.00;101331.94;12229606;19;20350;-83
2022/01/26 03:45:18;;;;;;;83.97;18.70;;;;;;;0.48;100.00;101341.06;12219517;19;20018;-83
2022/01/26 03:49:19;;;;;;;105.60;21.73;;;;;;;0.44;100.00;101343.22;12227864;19;20267;-82
2022/01/26 03:53:21;;;;;;;82.82;19.23;;;;;;;0.47;100.00;101339.38;12231164;19;20346;-83
2022/01/26 03:57:23;;;;;;;95.20;19.70;;;;;;;0.43;100.00;101328.81;12228575;19;20342;-84
2022/01/26 04:01:24;;;;;;;91.88;20.42;;;;;;;0.41;100.00;101324.53;12219349;19;20014;-85
2022/01/26 04:05:27;;;;;;;88.50;19.33;;;;;;;0.36;100.00;101319.56;12222283;19;20015;-84
2022/01/26 04:09:29;;;;;;;113.35;21.25;;;;;;;0.31;100.00;101323.72;12228413;19;20014;-84
2022/01/26 04:13:31;;;;;;;83.47;20.15;;;;;;;0.30;100.00;101340.97;12222160;19;20026;-84
2022/01/26 04:17:32;;;;;;;165.18;26.35;;;;;;;0.40;100.00;101349.97;12219127;19;20002;-83
2022/01/26 04:25:56;;;;;;;115.47;23.92;;;;;;;0.41;100.00;101338.94;12216312;19;20011;-83
2022/01/26 04:29:58;;;;;;;93.43;19.60;;;;;;;0.43;100.00;101333.38;12220865;19;20014;-84
2022/01/26 04:33:59;;;;;;;100.45;19.77;;;;;;;0.41;100.00;101338.94;12227754;19;20007;-84
2022/01/26 04:42:10;;;;;;;;;;;;;;;0.26;100.00;101331.44;12235273;19;20101;-84
2022/01/26 04:46:13;;;;;;;77.30;18.10;;;;;;;0.19;100.00;101325.75;12223339;19;20339;-84
2022/01/26 04:50:14;;;;;;;82.93;19.77;;;;;;;0.22;100.00;101326.28;12227999;19;20010;-83
2022/01/26 04:54:16;;;;;;;78.03;18.70;;;;;;;0.16;100.00;101318.75;12231271;19;20480;-84
2022/01/26 04:58:18;;;;;;;84.35;17.38;;;;;;;0.20;100.00;101316.59;12233241;19;20109;-84
2022/01/26 05:02:21;;;;;;;116.05;21.55;;;;;;;0.17;100.00;101306.88;12237995;19;20360;-84
2022/01/26 05:06:23;;;;;;;91.25;20.10;;;;;;;0.11;100.00;101295.78;12234200;19;20461;-84
2022/01/26 05:10:24;;;;;;;88.45;19.58;;;;;;;0.10;100.00;101299.50;12248940;19;20017;-84
2022/01/26 05:14:29;;;;;;;66.47;18.27;;;;;;;0.14;100.00;101303.63;12234812;19;20464;-84
2022/01/26 05:18:32;;;;;;;63.17;15.70;;;;;;;0.19;100.00;101304.06;12228209;19;20014;-83
2022/01/26 05:22:35;;;;;;;105.38;21.00;;;;;;;0.20;100.00;101308.47;12229559;19;20389;-84
2022/01/26 05:26:38;;;;;;;84.30;17.90;;;;;;;0.20;100.00;101311.16;12229437;19;20006;-83
2022/01/26 05:30:45;;;;;;;61.17;15.15;;;;;;;0.25;100.00;101311.59;12232556;19;20003;-83
2022/01/26 05:34:47;;;;;;;62.40;15.80;;;;;;;0.31;100.00;101316.44;12238098;19;20010;-84
2022/01/26 05:38:49;;;;;;;62.53;14.43;;;;;;;0.27;100.00;101300.59;12234885;19;20014;-84
2022/01/26 05:42:50;;;;;;;56.38;16.00;;;;;;;0.18;100.00;101307.78;12235393;19;20035;-84
2022/01/26 05:46:52;;;;;;;54.05;14.25;;;;;;;0.23;100.00;101300.03;12230934;19;20007;-83
2022/01/26 05:51:03;;;;;;;56.88;14.27;;;;;;;0.22;100.00;101292.91;12233536;19;20102;-84
2022/01/26 05:55:05;;;;;;;62.65;14.45;;;;;;;0.25;100.00;101298.03;12226798;19;20010;-83
2022/01/26 05:59:07;;;;;;;58.90;14.00;;;;;;;0.22;100.00;101277.50;12237575;19;20031;-86
2022/01/26 06:03:08;;;;;;;49.78;14.23;;;;;;;0.15;100.00;101275.50;12226823;19;20043;-86
2022/01/26 06:07:10;;;;;;;61.80;15.80;;;;;;;0.16;100.00;101288.94;12231594;19;20030;-83
2022/01/26 06:11:12;;;;;;;51.42;13.43;;;;;;;0.22;100.00;101293.75;12227666;19;20014;-84
2022/01/26 06:15:13;;;;;;;60.58;15.68;;;;;;;0.21;100.00;101288.50;12229617;19;20039;-84
2022/01/26 06:19:15;;;;;;;54.97;13.25;;;;;;;0.17;100.00;101295.19;12235516;19;20039;-83
2022/01/26 06:23:16;;;;;;;51.03;13.95;;;;;;;0.09;100.00;101290.53;12229470;19;20019;-82
2022/01/26 06:27:18;;;;;;;48.58;13.40;;;;;;;0.10;100.00;101313.06;12222914;19;20035;-82
2022/01/26 06:31:20;;;;;;;45.90;14.50;;;;;;;0.13;100.00;101312.75;12230632;19;20030;-83
2022/01/26 06:35:22;;;;;;;41.58;13.70;;;;;;;0.11;100.00;101309.34;12224087;19;20014;-84
2022/01/26 06:39:26;;;;;;;47.28;14.07;;;;;;;0.07;100.00;101316.06;12230672;19;20003;-83
2022/01/26 06:43:31;;;;;;;42.35;13.98;;;;;;;0.14;100.00;101322.59;12228931;19;20006;-82
2022/01/26 06:47:50;;;;;;;49.10;13.57;;;;;;;0.08;100.00;101329.44;12228687;19;20018;-81
2022/01/26 06:51:53;;;;;;;35.47;12.73;;;;;;;0.10;100.00;101348.28;12229034;19;20136;-83
2022/01/26 06:55:56;;;;;;;36.03;12.40;;;;;;;0.07;100.00;101352.16;12212128;19;20583;-82
2022/01/26 06:59:58;;;;;;;41.50;13.65;;;;;;;0.10;100.00;101354.56;12229481;19;20031;-83
2022/01/26 07:04:00;;;;;;;37.13;13.38;;;;;;;0.20;100.00;101359.97;12223660;19;20006;-83
2022/01/26 07:08:02;;;;;;;43.40;14.82;;;;;;;0.20;100.00;101371.66;12229937;19;20014;-83
2022/01/26 07:12:04;;;;;;;39.03;13.47;;;;;;;0.20;100.00;101378.94;12223687;19;20010;-83
2022/01/26 07:24:43;;;;;;;44.08;14.48;;;;;;;0.27;100.00;101393.66;12262452;19;20071;-83
2022/01/26 07:28:44;;;;;;;48.88;15.50;;;;;;;0.24;100.00;101388.53;12254858;19;20040;-82
2022/01/26 07:32:46;;;;;;;39.97;15.00;;;;;;;0.31;100.00;101384.22;12258254;19;20039;-82
2022/01/26 07:36:51;;;;;;;37.38;14.68;;;;;;;0.37;100.00;101375.50;12241363;19;20014;-81
2022/01/26 07:40:54;;;;;;;43.25;14.32;;;;;;;0.36;100.00;101376.50;12224062;19;20014;-82
2022/01/26 07:44:55;;;;;;;;;;;;;;;0.23;100.00;101376.78;12237146;19;20014;-81
2022/01/26 07:48:57;;;;;;;42.67;15.20;;;;;;;0.27;100.00;101379.22;12226556;19;19934;-81
2022/01/26 07:53:00;;;;;;;43.17;16.52;;;;;;;0.37;100.00;101377.38;12229614;19;20011;-81
2022/01/26 07:57:02;;;;;;;;;;;;;;;0.46;100.00;101376.50;12228634;19;20156;-81
2022/01/26 08:01:03;;;;;;;37.63;13.13;;;;;;;0.51;100.00;101384.22;12222858;19;19939;-81
2022/01/26 08:05:06;;;;;;;42.67;13.83;;;;;;;0.43;100.00;101377.63;12229852;19;20463;-81
2022/01/26 08:09:07;;;;;;;35.37;12.80;;;;;;;0.39;100.00;101354.53;12233638;19;20022;-79
2022/01/26 08:13:09;;;;;;;38.60;14.43;;;;;;;0.47;100.00;101344.78;12223083;19;20010;-82
2022/01/26 08:17:14;;;;;;;37.97;14.68;;;;;;;0.49;100.00;101342.81;12225701;19;20694;-79
2022/01/26 08:21:18;;;;;;;32.35;13.43;;;;;;;0.49;100.00;101342.81;12221299;19;20027;-80
2022/01/26 08:25:21;;;;;;;42.90;15.35;;;;;;;0.35;100.00;101323.25;12224668;19;20015;-81
2022/01/26 08:29:33;;;;;;;29.10;13.27;;;;;;;0.48;100.00;101322.09;12224538;19;20039;-81
2022/01/26 08:33:34;;;;;;;32.80;13.93;;;;;;;0.51;100.00;101319.09;12227425;19;20007;-82
2022/01/26 08:37:36;;;;;;;29.35;11.80;;;;;;;0.58;100.00;101359.03;12238680;19;20007;-80
2022/01/26 08:41:38;;;;;;;30.95;11.45;;;;;;;0.56;100.00;101365.59;12239306;19;20504;-80
2022/01/26 08:45:40;;;;;;;34.10;11.13;;;;;;;0.51;100.00;101357.09;12234852;19;20539;-80
2022/01/26 08:49:41;;;;;;;31.65;11.88;;;;;;;0.38;100.00;101358.22;12234838;19;20010;-80
2022/01/26 08:53:43;;;;;;;28.60;10.95;;;;;;;0.55;100.00;101358.47;12234723;19;20015;-82
2022/01/26 08:57:45;;;;;;;28.42;10.90;;;;;;;0.56;100.00;101333.06;12237407;19;20031;-81
2022/01/26 09:01:47;;;;;;;27.77;11.35;;;;;;;0.57;100.00;101351.91;12234460;19;20038;-79
2022/01/26 09:05:49;;;;;;;24.60;10.95;;;;;;;0.53;100.00;101349.63;12233752;19;20010;-80
2022/01/26 09:09:50;;;;;;;29.80;11.60;;;;;;;0.55;100.00;101344.91;12227987;19;20043;-80
2022/01/26 09:13:57;;;;;;;25.48;12.00;;;;;;;0.55;100.00;101350.34;12229351;19;20031;-81
2022/01/26 09:18:02;;;;;;;24.63;9.27;;;;;;;0.45;100.00;101353.94;12232753;19;20027;-79
2022/01/26 09:22:06;;;;;;;25.88;10.77;;;;;;;0.54;100.00;101351.34;12233041;19;20030;-80
2022/01/26 09:26:08;;;;;;;20.42;9.38;;;;;;;0.63;100.00;101361.31;12238740;19;20388;-79
2022/01/26 09:30:11;;;;;;;22.90;8.63;;;;;;;0.58;100.00;101366.31;12237359;19;20003;-82
2022/01/26 09:34:16;;;;;;;21.95;9.88;;;;;;;0.57;100.00;101362.75;12218797;19;20591;-82
2022/01/26 09:38:18;;;;;;;22.20;8.50;;;;;;;0.64;100.00;101376.59;12229241;19;20026;-82
2022/01/26 09:42:19;;;;;;;18.48;8.43;;;;;;;0.71;100.00;101399.41;12234321;19;20011;-82
2022/01/26 09:46:21;;;;;;;18.65;8.75;;;;;;;0.85;100.00;101419.81;12233466;19;20035;-82
2022/01/26 09:50:22;;;;;;;18.63;9.13;;;;;;;0.86;100.00;101413.34;12233790;19;20017;-82
2022/01/26 09:54:26;;;;;;;18.60;8.35;;;;;;;0.83;100.00;101417.25;12236460;19;20010;-83
2022/01/26 09:58:50;;;;;;;24.08;11.32;;;;;;;0.78;100.00;101408.69;12234864;19;20018;-84
2022/01/26 10:02:59;;;;;;;20.88;9.35;;;;;;;0.76;100.00;101426.97;12235100;19;20031;-81
2022/01/26 10:07:05;;;;;;;17.60;8.75;;;;;;;0.78;100.00;101413.25;12234361;19;20010;-82
2022/01/26 10:15:30;;;;;;;23.10;9.75;;;;;;;0.82;100.00;101415.53;12241920;19;20066;-84
2022/01/26 10:19:33;;;;;;;18.55;9.13;;;;;;;0.87;100.00;101420.53;12249144;19;20096;-84
2022/01/26 10:23:37;;;;;;;21.10;8.80;;;;;;;0.88;100.00;101414.94;12242192;19;20054;-84
2022/01/26 10:27:43;;;;;;;21.27;8.95;;;;;;;0.94;100.00;101431.63;12247657;19;20022;-85
2022/01/26 10:31:45;;;;;;;23.23;10.05;;;;;;;0.85;100.00;101415.22;12252402;19;20010;-85
2022/01/26 10:35:47;;;;;;;20.13;8.73;;;;;;;0.85;100.00;101415.22;12245921;19;20006;-82
2022/01/26 10:39:52;;;;;;;21.13;8.43;;;;;;;0.84;100.00;101408.09;12238521;19;20014;-83
2022/01/26 10:43:56;;;;;;;20.50;8.70;;;;;;;0.78;100.00;101391.56;12232619;19;20010;-82
2022/01/26 10:48:10;;;;;;;20.08;8.52;;;;;;;0.65;100.00;101398.16;12234905;19;20002;-81
2022/01/26 10:52:30;;;;;;;23.52;9.65;;;;;;;0.65;100.00;101397.28;12229471;19;20006;-82
2022/01/26 10:56:31;;;;;;;22.27;9.07;;;;;;;0.65;100.00;101390.03;12241822;19;20017;-84
2022/01/26 11:00:37;;;;;;;19.48;8.73;;;;;;;0.58;100.00;101385.31;12243282;19;20011;-83
2022/01/26 11:04:42;;;;;;;24.50;9.45;;;;;;;0.50;100.00;101386.03;12242590;19;20115;-83
2022/01/26 11:08:45;;;;;;;24.25;10.20;;;;;;;0.47;100.00;101399.03;12250281;19;20010;-83
2022/01/26 11:12:46;;;;;;;19.33;8.73;;;;;;;0.48;100.00;101385.34;12259397;19;20066;-85
2022/01/26 11:16:54;;;;;;;21.00;9.52;;;;;;;0.53;100.00;101388.44;12253086;19;20070;-85
2022/01/26 11:20:56;;;;;;;18.23;8.23;;;;;;;0.51;100.00;101385.06;12242845;19;20014;-85
2022/01/26 11:25:10;;;;;;;16.10;8.00;;;;;;;0.54;100.00;101389.34;12241681;19;20043;-85
2022/01/26 11:29:31;;;;;;;17.27;7.45;;;;;;;0.57;100.00;101391.75;12236048;19;20062;-85
2022/01/26 11:33:35;;;;;;;18.00;7.55;;;;;;;0.51;100.00;101386.91;12227718;19;20082;-85
2022/01/26 11:37:41;;;;;;;17.50;7.65;;;;;;;0.59;100.00;101389.72;12232088;19;20007;-84
2022/01/26 11:45:04;;;;;;;18.67;7.53;;;;;;;0.60;100.00;101394.19;12249845;19;20014;-84
2022/01/26 11:46:18;;;;;;;16.17;7.75;;;;;;;0.64;100.00;101374.72;12229882;19;20480;-85
2022/01/26 11:50:21;;;;;;;18.90;8.80;;;;;;;0.56;100.00;101369.16;12227027;19;20006;-85
2022/01/26 11:54:26;;;;;;;20.73;9.00;;;;;;;0.55;100.00;101367.47;12236110;19;20006;-85
2022/01/26 11:58:33;;;;;;;20.45;9.20;;;;;;;0.61;100.00;101366.88;12230530;19;19999;-85
2022/01/26 12:02:59;;;;;;;18.48;9.00;;;;;;;0.58;100.00;101366.31;12234460;19;20042;-86
2022/01/26 12:07:21;;;;;;;19.10;9.15;;;;;;;0.68;100.00;101373.44;12246590;19;20022;-84
2022/01/26 12:11:24;;;;;;;20.30;10.38;;;;;;;0.73;100.00;101377.56;12247928;19;20070;-86
2022/01/26 12:15:27;;;;;;;21.40;8.65;;;;;;;0.76;100.00;101382.69;12239591;19;20036;-86
2022/01/26 12:19:40;;;;;;;19.30;8.88;;;;;;;0.78;100.00;101378.84;12247336;19;20528;-86
2022/01/26 12:37:15;;;;;;;20.98;9.75;;;;;;;0.85;100.00;101365.53;12243507;19;20013;-83
2022/01/26 12:41:54;;;;;;;20.88;9.38;;;;;;;0.82;100.00;101372.09;12259132;19;20010;-85
2022/01/26 12:45:55;;;;;;;19.63;9.32;;;;;;;0.79;100.00;101382.41;12256800;19;20017;-86
2022/01/26 12:50:01;;;;;;;18.60;8.30;;;;;;;0.89;100.00;101394.06;12267687;19;20045;-84
2022/01/26 12:54:05;;;;;;;18.17;8.45;;;;;;;0.93;100.00;101402.78;12254391;19;20014;-84
2022/01/26 12:58:07;;;;;;;17.80;8.88;;;;;;;0.89;100.00;101404.91;12266373;19;20062;-84
2022/01/26 13:02:09;;;;;;;17.77;7.68;;;;;;;0.91;100.00;101401.06;12258570;19;20022;-83
2022/01/26 13:06:19;;;;;;;19.10;8.60;;;;;;;0.95;100.00;101398.06;12258475;19;20014;-85
2022/01/26 13:10:22;;;;;;;17.60;8.20;;;;;;;0.92;100.00;101396.47;12251588;19;20010;-83
2022/01/26 13:14:27;;;;;;;18.45;9.02;;;;;;;0.87;100.00;101394.22;12264981;19;20006;-86
2022/01/26 13:36:28;;;;;;;20.23;9.15;;;;;;;0.99;100.00;101391.34;12262480;19;20041;-85
2022/01/26 13:41:00;;;;;;;16.83;7.60;;;;;;;1.12;100.00;101394.56;12265618;19;20009;-86
2022/01/26 13:49:47;;;;;;;15.75;8.15;;;;;;;1.14;100.00;101389.84;12253935;19;20011;-85
2022/01/26 13:53:59;;;;;;;17.55;8.10;;;;;;;1.11;100.00;101371.97;12258824;19;20017;-85
2022/01/26 13:58:20;;;;;;;15.48;7.53;;;;;;;0.96;100.00;101367.22;12260843;19;20530;-86
2022/01/26 14:02:24;;;;;;;17.48;8.23;;;;;;;0.98;100.00;101365.19;12259252;19;20018;-85
2022/01/26 14:06:30;;;;;;;14.20;7.55;;;;;;;0.98;100.00;101357.03;12261296;19;20011;-86
2022/01/26 14:10:33;;;;;;;19.48;8.68;;;;;;;0.87;100.00;101342.66;12261012;19;20011;-86
2022/01/26 14:14:41;;;;;;;15.93;7.68;;;;;;;0.97;100.00;101352.63;12263531;19;20046;-84
2022/01/26 14:19:08;;;;;;;16.20;7.10;;;;;;;1.05;100.00;101345.44;12253612;19;20041;-86
2022/01/26 14:23:30;;;;;;;20.02;8.38;;;;;;;1.00;100.00;101336.03;12261126;19;20015;-84
2022/01/26 14:27:41;;;;;;;15.73;7.47;;;;;;;1.00;100.00;101326.03;12264275;19;20018;-84
2022/01/26 14:50:54;;;;;;;18.70;8.32;;;;;;;0.96;100.00;101323.78;12256575;19;20067;-86
2022/01/26 15:41:56;;;;;;;26.30;10.13;;;;;;;1.01;100.00;101337.72;12249265;19;20018;-88
2022/01/26 16:07:38;;;;;;;22.95;9.57;;;;;;;0.99;100.00;101320.75;12242717;19;20020;-86
2022/01/26 16:20:41;;;;;;;28.42;11.27;;;;;;;0.97;100.00;101341.75;12243229;19;20500;-87
2022/01/26 16:37:58;;;;;;;27.75;11.00;;;;;;;1.16;100.00;101368.84;12240502;19;21029;-84
2022/01/26 18:13:16;;;;;;;30.02;13.05;;;;;;;0.88;100.00;101338.09;12243163;19;20338;-85
2022/01/26 18:51:52;;;;;;;36.95;14.18;;;;;;;0.84;100.00;101331.25;12242821;19;20024;-86
2022/01/26 18:55:54;;;;;;;33.25;14.55;;;;;;;0.91;100.00;101344.06;12236338;19;20017;-85
2022/01/26 20:49:40;;;;;;;31.70;12.25;;;;;;;0.87;99.40;101285.69;12272612;19;20016;-85
2022/01/26 20:53:43;;;;;;;31.00;12.02;;;;;;;0.86;99.44;101291.25;12273977;19;20018;-83
2022/01/26 20:57:45;;;;;;;30.13;11.63;;;;;;;0.91;99.43;101297.94;12273545;19;20003;-85
2022/01/26 21:01:55;;;;;;;27.60;11.85;;;;;;;0.88;98.81;101292.81;12274445;19;20014;-86
2022/01/26 21:05:58;;;;;;;29.05;11.98;;;;;;;0.92;98.96;101304.19;12272133;19;20010;-85
2022/01/26 21:10:12;;;;;;;32.25;11.70;;;;;;;0.82;98.61;101290.69;12258221;19;20050;-86
2022/01/26 21:24:06;;;;;;;28.23;12.05;;;;;;;0.79;98.66;101284.72;12250604;19;20455;-85
2022/01/26 21:33:36;;;;;;;21.55;9.15;;;;;;;0.80;97.89;101286.41;12264711;19;20023;-85
2022/01/26 21:37:38;;;;;;;23.60;10.27;;;;;;;0.73;96.87;101285.31;12249455;19;20022;-85
2022/01/26 21:46:10;;;;;;;23.88;10.70;;;;;;;0.66;96.97;101268.78;12247962;19;20523;-86
2022/01/26 21:50:18;;;;;;;20.88;10.13;;;;;;;0.72;96.90;101262.75;12246862;19;20003;-87
2022/01/26 21:54:59;;;;;;;23.58;10.50;;;;;;;0.69;96.62;101263.06;12245130;19;20002;-87
2022/01/26 21:59:08;;;;;;;23.27;10.05;;;;;;;0.66;96.20;101261.50;12240338;19;20015;-85
2022/01/26 22:03:21;;;;;;;24.88;9.60;;;;;;;0.70;96.19;101248.47;12231429;19;20018;-83
2022/01/26 22:07:23;;;;;;;30.08;13.40;;;;;;;0.68;96.01;101253.19;12233757;19;20023;-86
2022/01/26 22:11:26;;;;;;;23.55;10.77;;;;;;;0.67;95.99;101265.06;12237805;19;20500;-86
2022/01/26 22:15:36;;;;;;;56.22;21.08;;;;;;;0.64;95.90;101258.06;12227772;19;20097;-87
2022/01/26 22:19:51;;;;;;;37.47;16.38;;;;;;;0.64;96.11;101251.78;12228799;19;20036;-88
2022/01/26 22:23:53;;;;;;;29.40;12.35;;;;;;;0.65;96.25;101246.25;12237092;19;20076;-88
2022/01/26 22:28:36;;;;;;;23.83;10.57;;;;;;;0.66;95.88;101247.09;12238063;19;20472;-87
2022/01/26 22:33:00;;;;;;;32.67;13.85;;;;;;;0.63;95.74;101248.25;12226460;19;20014;-86
2022/01/26 22:37:25;;;;;;;25.58;10.82;;;;;;;0.61;96.05;101252.94;12225688;19;20006;-88
2022/01/26 22:41:44;;;;;;;25.17;11.10;;;;;;;0.62;96.21;101234.81;12223760;19;20003;-88
2022/01/26 22:45:56;;;;;;;28.67;11.60;;;;;;;0.57;96.08;101237.13;12228129;19;20003;-87
2022/01/26 22:50:34;;;;;;;32.40;13.07;;;;;;;0.56;96.21;101225.41;12223219;19;20014;-87
2022/01/26 22:55:25;;;;;;;28.98;13.27;;;;;;;0.61;96.27;101222.25;12233269;19;20011;-86
2022/01/26 22:59:51;;;;;;;33.45;13.52;;;;;;;0.61;96.29;101222.25;12227405;19;20082;-87
2022/01/26 23:04:15;;;;;;;31.77;14.02;;;;;;;0.57;96.65;101220.88;12227831;19;20468;-87
2022/01/26 23:08:29;;;;;;;33.92;14.27;;;;;;;0.54;96.69;101211.16;12223629;19;20014;-88
2022/01/26 23:12:46;;;;;;;32.05;12.90;;;;;;;0.38;97.01;101211.78;12234192;19;20007;-88
2022/01/26 23:16:56;;;;;;;35.83;15.27;;;;;;;0.33;97.21;101211.41;12233715;19;20011;-87
2022/01/26 23:20:59;;;;;;;36.42;13.80;;;;;;;0.36;97.53;101202.13;12234272;19;20018;-88
2022/01/26 23:25:31;;;;;;;38.20;14.57;;;;;;;0.31;97.30;101209.84;12232946;19;20014;-86
2022/01/26 23:30:07;;;;;;;35.67;15.13;;;;;;;0.20;96.80;101219.84;12240307;19;20015;-88
